Stations météo

réclame
Mon MeteoGroup
Merida, Espagne (8331): Température de l'air & dewpoint: 08.08.2018 19:00:00 - 14.08.2018 19:00:00 (CEST)Merida, Espagne (8331): Vitesse du vent & gusts: 08.08.2018 19:00:00 - 14.08.2018 19:00:00 (CEST)Merida, Espagne (8331): Direction du vent: 08.08.2018 19:00:00 - 14.08.2018 19:00:00 (CEST)Merida, Espagne (8331): Quantités de précipitations: 08.08.2018 19:00:00 - 14.08.2018 19:00:00 (CEST)
Date & Time tt [°C] td [°C] ff [km/h] ff [knt] fx [km/h] fx [knt] dd rr [mm]
14.08.2018 19:00:00 - - - - - - - -
14.08.2018 18:00:00 34,5 11,6 4 2 19 11 SSW 0,0
14.08.2018 17:00:00 35,4 14,1 6 3 19 10 W 0,0
14.08.2018 16:00:00 34,5 13,4 6 3 17 9 W 0,0
14.08.2018 15:00:00 32,1 13,8 6 3 15 8 W 0,0
14.08.2018 14:00:00 31,8 15,3 5 3 21 11 W -
14.08.2018 13:00:00 26,9 14,3 2 1 10 5 ENE 0,0
14.08.2018 12:00:00 26,4 15,2 4 2 10 5 W 0,0
14.08.2018 11:00:00 23,1 15,9 5 3 11 6 W 0,0
14.08.2018 10:00:00 21,4 16,4 3 2 9 5 W 0,0
14.08.2018 09:00:00 18,4 16,4 4 2 8 5 W 0,0
14.08.2018 08:00:00 14,8 14,6 4 2 8 4 WSW -
14.08.2018 07:00:00 14,5 14,3 4 2 8 5 WSW 0,0
14.08.2018 06:00:00 15,6 15,2 5 3 10 5 W 0,0
14.08.2018 05:00:00 16,6 15,4 6 4 13 7 WSW 0,0
14.08.2018 04:00:00 17,6 15,4 6 3 12 7 W 0,0
14.08.2018 03:00:00 18,1 15,0 8 4 17 9 W 0,0
14.08.2018 02:00:00 19,2 14,6 8 4 17 9 WSW -
14.08.2018 01:00:00 20,5 13,5 10 5 19 10 WSW 0,0
14.08.2018 00:00:00 22,3 11,7 9 5 16 9 WSW 0,0
13.08.2018 23:00:00 23,9 10,2 9 5 16 9 WSW 0,0
13.08.2018 22:00:00 26,3 10,4 10 5 24 13 W 0,0
13.08.2018 21:00:00 28,6 10,8 14 8 27 15 WSW 0,0
13.08.2018 20:00:00 31,0 11,3 16 9 28 15 WSW -
13.08.2018 19:00:00 31,9 11,7 17 9 29 15 WSW 0,0
13.08.2018 18:00:00 32,5 13,2 16 8 30 16 SW 0,0
13.08.2018 17:00:00 31,6 14,2 13 7 26 14 WSW 0,0
13.08.2018 16:00:00 31,3 14,4 13 7 27 14 WSW 0,0
13.08.2018 15:00:00 30,2 17,0 10 5 25 14 WSW 0,0
13.08.2018 14:00:00 28,5 17,1 10 5 25 13 W -
13.08.2018 13:00:00 26,9 17,9 12 7 24 13 W 0,0
13.08.2018 12:00:00 26,0 18,7 11 6 22 12 W 0,0
13.08.2018 11:00:00 23,8 18,5 11 6 22 12 W 0,0
13.08.2018 10:00:00 22,2 19,3 13 7 23 12 WSW 0,0
13.08.2018 09:00:00 20,4 19,6 8 5 19 11 WSW 0,0
13.08.2018 08:00:00 17,7 17,5 7 4 15 8 WSW -
13.08.2018 07:00:00 17,0 16,8 6 3 12 7 WSW 0,0
13.08.2018 06:00:00 17,6 17,5 6 3 19 10 WSW 0,0
13.08.2018 05:00:00 18,3 18,2 11 6 22 12 W 0,0
13.08.2018 04:00:00 18,9 17,9 11 6 21 11 W 0,0
13.08.2018 03:00:00 19,8 17,4 10 6 19 11 WSW 0,0
13.08.2018 02:00:00 20,9 17,7 9 5 20 11 WSW -
13.08.2018 01:00:00 22,2 17,4 9 5 21 11 WSW 0,0
13.08.2018 00:00:00 24,1 16,6 11 6 22 12 WSW 0,0
12.08.2018 23:00:00 26,4 14,5 11 6 22 12 WSW 0,0
12.08.2018 22:00:00 28,9 14,3 13 7 27 15 W 0,0
12.08.2018 21:00:00 30,7 14,3 10 6 31 17 W 0,0
12.08.2018 20:00:00 32,6 15,2 15 8 35 19 W -
12.08.2018 19:00:00 34,2 15,6 13 7 34 18 W 0,0
12.08.2018 18:00:00 35,2 16,0 16 8 29 16 W 0,0
12.08.2018 17:00:00 36,4 16,6 13 7 29 16 W 0,0
12.08.2018 16:00:00 37,2 17,8 12 6 29 16 W 0,0
12.08.2018 15:00:00 36,1 17,8 11 6 24 13 WSW 0,0
12.08.2018 14:00:00 33,8 17,5 9 5 17 9 W -
12.08.2018 13:00:00 32,3 17,4 6 3 14 8 WNW 0,0
12.08.2018 12:00:00 29,7 16,1 7 4 16 9 W 0,0
12.08.2018 11:00:00 26,7 16,3 4 2 13 7 W 0,0
12.08.2018 10:00:00 24,6 15,8 5 3 11 6 WSW 0,0
12.08.2018 09:00:00 23,7 16,7 1 1 5 3 WNW 0,0
12.08.2018 08:00:00 19,2 14,4 2 1 14 8 NW -
12.08.2018 07:00:00 20,1 13,6 7 4 11 6 WSW 0,0
12.08.2018 06:00:00 21,2 13,2 6 3 14 8 W 0,0
12.08.2018 05:00:00 21,9 13,0 4 2 10 6 WSW 0,0
12.08.2018 04:00:00 23,1 13,6 5 3 16 9 WSW 0,0
12.08.2018 03:00:00 23,6 14,0 9 5 18 10 WSW 0,0
12.08.2018 02:00:00 25,2 13,8 10 5 18 10 WSW -
12.08.2018 01:00:00 26,2 14,3 9 5 16 9 SW 0,0
12.08.2018 00:00:00 26,0 15,3 6 3 9 5 SW 0,0
11.08.2018 23:00:00 26,1 14,2 1 1 8 4 SSW 0,0
11.08.2018 22:00:00 28,2 15,5 5 3 14 8 SSW 0,0
11.08.2018 21:00:00 32,0 16,3 6 3 18 10 WSW 0,0
11.08.2018 20:00:00 34,9 17,1 12 6 27 15 WSW -
11.08.2018 19:00:00 36,2 16,9 2 1 23 13 ESE 0,0
11.08.2018 18:00:00 38,5 18,9 7 4 24 13 NW 0,0
11.08.2018 17:00:00 37,1 17,7 6 3 27 15 N 0,0
11.08.2018 16:00:00 37,0 18,1 9 5 29 15 E 0,0
11.08.2018 15:00:00 36,7 17,8 1 0 18 10 SW 0,0
11.08.2018 14:00:00 35,0 15,9 4 2 13 7 E -
11.08.2018 13:00:00 33,5 15,0 5 3 12 7 NNE 0,0
11.08.2018 12:00:00 30,5 15,8 4 2 15 8 ENE 0,0
11.08.2018 11:00:00 27,6 14,9 4 2 9 5 ENE 0,0
11.08.2018 10:00:00 25,6 15,3 4 2 7 4 ENE 0,0
11.08.2018 09:00:00 22,3 15,9 1 0 4 2 W 0,0
11.08.2018 08:00:00 15,4 12,8 0 0 7 4 ENE -
11.08.2018 07:00:00 18,3 14,4 4 2 8 4 ENE 0,0
11.08.2018 06:00:00 16,1 13,6 0 0 9 5 E 0,0
11.08.2018 05:00:00 18,5 14,1 6 4 13 7 SW 0,0
11.08.2018 04:00:00 19,1 14,1 8 4 16 9 WSW 0,0
11.08.2018 03:00:00 19,8 12,7 8 4 13 7 W 0,0
11.08.2018 02:00:00 21,2 10,6 8 4 16 9 WSW -
11.08.2018 01:00:00 19,7 11,0 1 0 8 4 SW 0,0
11.08.2018 00:00:00 20,0 6,4 0 0 6 3 NNE 0,0
10.08.2018 23:00:00 23,1 7,6 4 2 7 4 S 0,0
10.08.2018 22:00:00 23,9 7,6 5 3 8 4 S 0,0
10.08.2018 21:00:00 29,2 9,3 6 3 14 7 SW 0,0
10.08.2018 20:00:00 31,9 8,3 10 5 14 8 WSW -
10.08.2018 19:00:00 32,7 9,4 8 5 15 8 W 0,0
10.08.2018 18:00:00 33,4 10,0 10 5 21 12 WSW 0,0
10.08.2018 17:00:00 33,9 10,5 9 5 23 13 SW 0,0
10.08.2018 16:00:00 33,2 10,5 8 5 19 10 SW 0,0
10.08.2018 15:00:00 33,0 11,0 6 3 16 9 NW 0,0
10.08.2018 14:00:00 31,9 12,6 2 1 13 7 WNW -
10.08.2018 13:00:00 29,8 13,2 1 0 11 6 WNW 0,0
10.08.2018 12:00:00 27,1 12,7 3 2 9 5 W 0,0
10.08.2018 11:00:00 24,2 13,5 2 1 8 5 W 0,0
10.08.2018 10:00:00 21,0 13,7 2 1 9 5 WSW 0,0
10.08.2018 09:00:00 18,9 13,8 5 3 11 6 W 0,0
10.08.2018 08:00:00 14,8 13,7 5 3 13 7 WSW -
10.08.2018 07:00:00 15,9 13,4 8 4 15 8 WSW 0,0
10.08.2018 06:00:00 16,1 13,3 7 4 16 9 WSW 0,0
10.08.2018 05:00:00 17,1 13,5 8 5 13 7 WSW 0,0
10.08.2018 04:00:00 17,3 13,5 7 4 16 9 WSW 0,0
10.08.2018 03:00:00 18,4 12,6 9 5 19 10 WSW 0,0
10.08.2018 02:00:00 19,8 13,9 9 5 21 12 WSW -
10.08.2018 01:00:00 20,5 13,5 9 5 17 9 SW 0,0
10.08.2018 00:00:00 19,8 7,1 6 3 11 6 SW 0,0
09.08.2018 23:00:00 21,0 7,3 2 1 8 4 W 0,0
09.08.2018 22:00:00 22,5 6,7 3 2 12 6 WSW 0,0
09.08.2018 21:00:00 28,7 7,8 6 3 16 9 WNW 0,0
09.08.2018 20:00:00 30,4 7,6 9 5 22 12 W -
09.08.2018 19:00:00 31,3 8,3 9 5 26 14 WNW 0,0
09.08.2018 18:00:00 32,5 9,3 8 4 27 15 NW 0,0
09.08.2018 17:00:00 32,2 10,9 9 5 34 18 NW 0,0
09.08.2018 16:00:00 31,1 11,0 8 4 28 15 W 0,0
09.08.2018 15:00:00 31,1 13,0 11 6 32 17 W 0,0
09.08.2018 14:00:00 29,7 13,5 7 4 23 13 W -
09.08.2018 13:00:00 27,4 13,8 9 5 22 12 W 0,0
09.08.2018 12:00:00 24,9 14,3 10 5 21 11 W 0,0
09.08.2018 11:00:00 22,9 15,4 11 6 22 12 W 0,0
09.08.2018 10:00:00 21,0 16,6 11 6 24 13 W 0,0
09.08.2018 09:00:00 18,6 17,9 11 6 21 11 WSW 0,0
09.08.2018 08:00:00 15,9 15,7 8 5 18 10 WSW -
09.08.2018 07:00:00 16,1 16,0 9 5 16 9 WSW 0,0
09.08.2018 06:00:00 16,4 16,2 9 5 21 11 WSW 0,0
09.08.2018 05:00:00 16,9 16,7 11 6 22 12 WSW 0,0
09.08.2018 04:00:00 17,4 16,6 11 6 28 15 WSW 0,0
09.08.2018 03:00:00 18,2 16,1 17 9 29 16 WSW 0,0
09.08.2018 02:00:00 19,3 16,0 18 10 36 19 WSW -
09.08.2018 01:00:00 20,6 15,6 19 10 30 16 WSW 0,0
09.08.2018 00:00:00 21,8 14,9 14 8 27 15 WSW 0,0
08.08.2018 23:00:00 23,1 13,6 14 7 23 12 WSW 0,0
08.08.2018 22:00:00 23,6 11,0 10 5 29 16 WSW 0,0
08.08.2018 21:00:00 27,3 10,9 18 10 35 19 W 0,0
08.08.2018 20:00:00 29,8 11,3 17 9 37 20 W -
08.08.2018 19:00:00 31,0 13,8 19 11 37 20 W 0,0

tt = Température de l'air
td = dewpoint
ff = Vitesse du vent
fx = gusts
dd = Direction du vent
rr = Quantités de précipitations

stations d'obs. à proximité